»·PEaware :: DAL450 KMFR-KSFO

DAL450 :: KMFR-KSFO

FLIGHT INFORMATION

Flight Status: Arrived
Operator:
Delta Air Lines
More flights by this operator :: More flights under this callsign
Pilot: Sergei F. (8485)
Aircraft: BOEING 757-200
(B752)
More flights by this aircraft type
Origin: KMFR Rogue Valley Intl-Medford
United States
Destination: KSFO San Francisco Intl
United States
More flights between these airports :: More routes between these airports
Route: + / RBL327005 MLBEC BDEGA2
File this flight plan on PilotEdge
Remarks:
Altitude:
(Current/Filed)
310ft
Speed:
(Current/Filed)
300kts
Departed: 04-Jan-18 06:29 PM
Arrived: 04-Jan-18 07:36 PM
Distance/Time
Traveled:
286nm/1:07
Distance/Time
To Go:
Arrived

Flight Plot

Page will automatically refresh every two minutes.

Flight plan parsing failed; only flown route is shown


Map Options




Map Legend


Flown Route
Filed Route
Departure Airport
Arrival Airport
Navaid (VOR, NDB)
Fix

Horizontal Profiles

Position Reports

Time Latitude Longitude Heading Altitude Ground
Speed
04-Jan-18 18:02 42.368983 -122.873438 247 1324ft 0kts
04-Jan-18 18:03 42.368983 -122.873438 247 1324ft 0kts
04-Jan-18 18:04 42.368983 -122.873438 247 1324ft 0kts
04-Jan-18 18:05 42.368983 -122.873438 247 1324ft 0kts
04-Jan-18 18:06 42.368983 -122.873438 247 1324ft 0kts
04-Jan-18 18:07 42.368983 -122.873438 247 1324ft 0kts
04-Jan-18 18:08 42.368983 -122.873438 247 1324ft 0kts
04-Jan-18 18:09 42.368983 -122.873438 247 1324ft 0kts
04-Jan-18 18:10 42.368983 -122.873438 247 1324ft 0kts
04-Jan-18 18:11 42.368983 -122.873438 247 1324ft 0kts
04-Jan-18 18:12 42.368983 -122.873438 247 1324ft 0kts
04-Jan-18 18:13 42.368983 -122.873439 247 1324ft 0kts
04-Jan-18 18:14 42.368983 -122.873439 247 1324ft 0kts
04-Jan-18 18:15 42.368983 -122.873439 247 1324ft 0kts
04-Jan-18 18:16 42.368983 -122.873439 247 1324ft 0kts
04-Jan-18 18:17 42.368983 -122.873439 247 1324ft 0kts
04-Jan-18 18:18 42.369047 -122.873228 247 1324ft 0kts
04-Jan-18 18:19 42.369168 -122.872829 247 1325ft 2kts
04-Jan-18 18:20 42.369455 -122.872131 211 1325ft 2kts
04-Jan-18 18:21 42.369757 -122.872120 158 1324ft 0kts
04-Jan-18 18:22 42.369757 -122.872120 158 1324ft 0kts
04-Jan-18 18:23 42.369757 -122.872120 158 1324ft 0kts
04-Jan-18 18:24 42.369757 -122.872120 158 1324ft 0kts
04-Jan-18 18:25 42.369757 -122.872120 158 1324ft 0kts
04-Jan-18 18:26 42.369756 -122.872120 158 1324ft 0kts
04-Jan-18 18:27 42.369642 -122.872063 159 1325ft 0kts
04-Jan-18 18:28 42.369029 -122.871748 158 1326ft 5kts
04-Jan-18 18:29 42.367202 -122.870792 158 1329ft 7kts
04-Jan-18 18:30 42.364825 -122.869556 158 1331ft 10kts
04-Jan-18 18:31 42.363910 -122.869071 156 1332ft 0kts
04-Jan-18 18:32 42.363910 -122.869071 156 1332ft 0kts
04-Jan-18 18:33 42.363580 -122.868442 83 1333ft 4kts
04-Jan-18 18:34 42.364220 -122.867662 339 1335ft 0kts
04-Jan-18 18:35 42.385965 -122.879054 338 1879ft 180kts
04-Jan-18 18:36 42.431243 -122.893584 351 5022ft 176kts
04-Jan-18 18:37 42.479564 -122.911193 339 6888ft 184kts
04-Jan-18 18:38 42.521499 -122.945213 315 8964ft 175kts
04-Jan-18 18:39 42.558407 -122.926758 108 10695ft 188kts
04-Jan-18 18:40 42.516254 -122.903917 182 11501ft 188kts
04-Jan-18 18:41 42.465466 -122.905648 179 13376ft 189kts
04-Jan-18 18:42 42.411293 -122.900623 180 14842ft 214kts
04-Jan-18 18:43 42.356774 -122.896420 180 15730ft 260kts
04-Jan-18 18:44 42.261552 -122.889243 180 16981ft 329kts
04-Jan-18 18:45 42.165062 -122.880089 178 18429ft 358kts
04-Jan-18 18:46 42.079248 -122.871165 179 19827ft 383kts
04-Jan-18 18:47 41.953593 -122.858135 179 22457ft 397kts
04-Jan-18 18:48 41.843966 -122.846847 179 24467ft 408kts
04-Jan-18 18:49 41.748880 -122.837063 180 26058ft 417kts
04-Jan-18 18:50 41.631760 -122.825053 180 27772ft 428kts
04-Jan-18 18:51 41.513972 -122.812982 181 29888ft 425kts
04-Jan-18 18:52 41.398534 -122.783973 169 31072ft 428kts
04-Jan-18 18:53 41.285999 -122.735979 168 31072ft 428kts
04-Jan-18 18:54 41.172771 -122.687548 169 31072ft 428kts
04-Jan-18 18:55 41.074059 -122.645407 169 31082ft 425kts
04-Jan-18 18:56 40.962937 -122.598124 169 31127ft 418kts
04-Jan-18 18:57 40.855904 -122.552789 169 31147ft 418kts
04-Jan-18 18:58 40.745268 -122.506064 169 31146ft 418kts
04-Jan-18 18:59 40.634746 -122.459563 169 31144ft 422kts
04-Jan-18 19:00 40.523301 -122.412838 169 31143ft 421kts
04-Jan-18 19:01 40.411313 -122.366093 169 31147ft 433kts
04-Jan-18 19:02 40.296390 -122.318207 170 31134ft 438kts
04-Jan-18 19:03 40.180894 -122.270671 173 31137ft 435kts
04-Jan-18 19:04 40.065193 -122.277712 200 31139ft 412kts
04-Jan-18 19:05 39.962918 -122.340843 207 31135ft 409kts
04-Jan-18 19:06 39.861325 -122.401223 206 31148ft 409kts
04-Jan-18 19:07 39.757569 -122.461081 206 31145ft 410kts
04-Jan-18 19:08 39.653889 -122.520354 206 31141ft 409kts
04-Jan-18 19:09 39.550070 -122.579440 206 31113ft 410kts
04-Jan-18 19:10 39.446068 -122.638422 206 31087ft 410kts
04-Jan-18 19:11 39.341901 -122.697297 206 31092ft 410kts
04-Jan-18 19:12 39.237403 -122.756177 205 31099ft 409kts
04-Jan-18 19:13 39.133879 -122.814304 205 31098ft 409kts
04-Jan-18 19:14 39.029417 -122.872773 205 30756ft 407kts
04-Jan-18 19:15 38.927918 -122.929382 205 29582ft 389kts
04-Jan-18 19:16 38.825552 -122.944494 175 28687ft 409kts
04-Jan-18 19:17 38.718737 -122.912639 174 26719ft 375kts
04-Jan-18 19:18 38.618196 -122.882989 174 25316ft 356kts
04-Jan-18 19:19 38.523542 -122.855160 173 23864ft 349kts
04-Jan-18 19:20 38.430638 -122.827846 173 22375ft 342kts
04-Jan-18 19:21 38.339247 -122.801041 172 20915ft 336kts
04-Jan-18 19:22 38.249134 -122.774678 172 19493ft 330kts
04-Jan-18 19:23 38.160589 -122.748884 171 18035ft 326kts
04-Jan-18 19:24 38.073186 -122.723502 170 16484ft 320kts
04-Jan-18 19:25 37.987202 -122.698593 170 15035ft 316kts
04-Jan-18 19:26 37.902518 -122.671924 157 13638ft 316kts
04-Jan-18 19:27 37.833869 -122.603557 143 12259ft 317kts
04-Jan-18 19:28 37.769592 -122.535539 143 11637ft 283kts
04-Jan-18 19:29 37.710907 -122.473394 143 10990ft 276kts
04-Jan-18 19:30 37.652151 -122.410936 143 10436ft 274kts
04-Jan-18 19:31 37.592913 -122.357502 155 9362ft 261kts
04-Jan-18 19:32 37.532157 -122.318895 154 8270ft 235kts
04-Jan-18 19:33 37.476797 -122.283707 154 7031ft 219kts
04-Jan-18 19:34 37.425287 -122.246744 125 5553ft 216kts
04-Jan-18 19:35 37.443600 -122.180279 53 4180ft 227kts
04-Jan-18 19:36 37.490600 -122.138952 344 3413ft 214kts
04-Jan-18 19:37 37.532530 -122.177854 323 2963ft 162kts
04-Jan-18 19:38 37.555109 -122.224090 299 2196ft 144kts
04-Jan-18 19:39 37.574488 -122.268665 299 1603ft 140kts
04-Jan-18 19:40 37.591987 -122.311015 297 864ft 135kts
04-Jan-18 19:41 37.609606 -122.353291 296 150ft 135kts
04-Jan-18 19:42 37.619910 -122.377897 294 30ft 16kts
04-Jan-18 19:43 37.619326 -122.379743 217 34ft 7kts
04-Jan-18 19:44 37.617196 -122.379453 184 33ft 7kts
04-Jan-18 19:45 37.616732 -122.380519 300 34ft 0kts
04-Jan-18 19:46 37.616732 -122.380519 300 34ft 0kts
04-Jan-18 19:47 37.616732 -122.380519 300 34ft 0kts
04-Jan-18 19:48 37.616732 -122.380519 300 34ft 0kts
04-Jan-18 19:49 37.616732 -122.380519 300 35ft 0kts
04-Jan-18 19:50 37.616732 -122.380519 300 35ft 0kts
04-Jan-18 19:51 37.616732 -122.380519 300 35ft 0kts
04-Jan-18 19:52 37.616732 -122.380519 300 35ft 0kts

Navigation Log

Ident Type
Flight plan parsing failed, navigation log unavailable